createdAt,value
2018-08-13T00:00:47.117Z,1009.51
2018-08-13T00:01:56.966Z,1009.54
2018-08-13T00:03:06.279Z,1009.53
2018-08-13T00:04:15.309Z,1009.52
2018-08-13T00:05:25.162Z,1009.5
2018-08-13T00:06:34.778Z,1009.47
2018-08-13T00:07:44.623Z,1009.43
2018-08-13T00:08:54.210Z,1009.4
2018-08-13T00:10:03.786Z,1009.42
2018-08-13T00:11:13.365Z,1009.42
2018-08-13T00:12:22.936Z,1009.4
2018-08-13T00:13:31.971Z,1009.39
2018-08-13T00:14:41.811Z,1009.38
2018-08-13T00:15:51.658Z,1009.35
2018-08-13T00:17:01.768Z,1009.33
2018-08-13T00:18:11.621Z,1009.29
2018-08-13T00:19:20.933Z,1009.29
2018-08-13T00:20:30.788Z,1009.33
2018-08-13T00:21:39.818Z,1009.3
2018-08-13T00:22:49.661Z,1009.27
2018-08-13T00:23:59.500Z,1009.25
2018-08-13T00:25:09.348Z,1009.27
2018-08-13T00:26:18.920Z,1009.27
2018-08-13T00:27:28.540Z,1009.27
2018-08-13T00:28:37.850Z,1009.25
2018-08-13T00:29:47.964Z,1009.22
2018-08-13T00:30:57.542Z,1009.2
2018-08-13T00:32:06.845Z,1009.23
2018-08-13T00:33:16.956Z,1009.18
2018-08-13T00:34:26.536Z,1009.16
2018-08-13T00:35:36.113Z,1009.16
2018-08-13T00:36:45.424Z,1009.15
2018-08-13T00:37:55.000Z,1009.12
2018-08-13T00:39:04.586Z,1009.09
2018-08-13T00:40:14.437Z,1009.11
2018-08-13T00:41:24.546Z,1009.08
2018-08-13T00:42:34.116Z,1009.05
2018-08-13T00:43:43.693Z,1009.12
2018-08-13T00:44:53.538Z,1009.07
2018-08-13T00:46:02.841Z,1009.05
2018-08-13T00:47:12.420Z,1009.06
2018-08-13T00:48:21.461Z,1009.01
2018-08-13T00:49:31.033Z,1009.06
2018-08-13T00:50:40.615Z,1009.02
2018-08-13T00:51:50.468Z,1009.04
2018-08-13T00:53:00.590Z,1008.99
2018-08-13T00:54:10.437Z,1008.97
2018-08-13T00:55:20.277Z,1008.93
2018-08-13T00:56:30.121Z,1008.94
2018-08-13T00:57:39.972Z,1008.93
2018-08-13T00:58:49.551Z,1008.97
2018-08-13T00:59:59.391Z,1008.93
2018-08-13T01:01:08.694Z,1008.93
2018-08-13T01:02:18.859Z,1008.94
2018-08-13T01:03:28.977Z,1008.89
2018-08-13T01:04:38.288Z,1008.91
2018-08-13T01:05:48.400Z,1008.9
2018-08-13T01:06:57.702Z,1008.9
2018-08-13T01:08:07.817Z,1008.93
2018-08-13T01:09:17.389Z,1008.93
2018-08-13T01:10:26.971Z,1008.91
2018-08-13T01:11:36.814Z,1008.89
2018-08-13T01:12:46.119Z,1008.91
2018-08-13T01:13:55.966Z,1008.86
2018-08-13T01:15:05.808Z,1008.86
2018-08-13T01:16:15.919Z,1008.86
2018-08-13T01:17:25.771Z,1008.78
2018-08-13T01:18:35.074Z,1008.81
2018-08-13T01:19:44.922Z,1008.76
2018-08-13T01:20:54.495Z,1008.78
2018-08-13T01:22:03.799Z,1008.77
2018-08-13T01:23:13.371Z,1008.72
2018-08-13T01:24:22.945Z,1008.71
2018-08-13T01:25:33.075Z,1008.7
2018-08-13T01:26:42.383Z,1008.68
2018-08-13T01:27:51.965Z,1008.68
2018-08-13T01:29:01.273Z,1008.66
2018-08-13T01:30:10.856Z,1008.67
2018-08-13T01:31:20.431Z,1008.68
2018-08-13T01:32:30.586Z,1008.66
2018-08-13T01:33:40.164Z,1008.62
2018-08-13T01:34:49.467Z,1008.59
2018-08-13T01:35:59.305Z,1008.58
2018-08-13T01:37:09.159Z,1008.54
2018-08-13T01:38:18.732Z,1008.53
2018-08-13T01:39:28.046Z,1008.53
2018-08-13T01:40:38.160Z,1008.51
2018-08-13T01:41:48.276Z,1008.5
2018-08-13T01:42:58.121Z,1008.53
2018-08-13T01:44:08.233Z,1008.53
2018-08-13T01:45:17.809Z,1008.5
2018-08-13T01:46:27.653Z,1008.48
2018-08-13T01:47:37.501Z,1008.48
2018-08-13T01:48:46.809Z,1008.49
2018-08-13T01:49:56.386Z,1008.44
2018-08-13T01:51:05.967Z,1008.45
2018-08-13T01:52:15.537Z,1008.46
2018-08-13T01:53:25.118Z,1008.43
2018-08-13T01:54:35.331Z,1008.44
2018-08-13T01:55:44.905Z,1008.44
2018-08-13T01:56:54.485Z,1008.42
2018-08-13T01:58:04.065Z,1008.45
2018-08-13T01:59:13.367Z,1008.43
2018-08-13T02:00:22.990Z,1008.4
2018-08-13T02:01:32.622Z,1008.45
2018-08-13T02:02:43.180Z,1008.46
2018-08-13T02:03:52.210Z,1008.47
2018-08-13T02:05:01.516Z,1008.44
2018-08-13T02:06:11.376Z,1008.44
2018-08-13T02:07:21.224Z,1008.41
2018-08-13T02:08:30.810Z,1008.4
2018-08-13T02:09:40.120Z,1008.4
2018-08-13T02:10:49.423Z,1008.37
2018-08-13T02:11:59.052Z,1008.41
2018-08-13T02:13:08.628Z,1008.37
2018-08-13T02:14:18.477Z,1008.37
2018-08-13T02:15:27.815Z,1008.33
2018-08-13T02:16:37.404Z,1008.36
2018-08-13T02:17:47.510Z,1008.36
2018-08-13T02:18:57.621Z,1008.36
2018-08-13T02:20:07.194Z,1008.37
2018-08-13T02:21:17.050Z,1008.37
2018-08-13T02:22:26.364Z,1008.35
2018-08-13T02:23:36.208Z,1008.36
2018-08-13T02:24:45.515Z,1008.34
2018-08-13T02:25:55.364Z,1008.3
2018-08-13T02:27:05.206Z,1008.27
2018-08-13T02:28:15.054Z,1008.25
2018-08-13T02:29:24.626Z,1008.28
2018-08-13T02:30:33.933Z,1008.23
2018-08-13T02:31:43.508Z,1008.24
2018-08-13T02:32:53.110Z,1008.25
2018-08-13T02:34:02.414Z,1008.23
2018-08-13T02:35:11.988Z,1008.27
2018-08-13T02:36:21.827Z,1008.26
2018-08-13T02:37:31.667Z,1008.26
2018-08-13T02:38:40.971Z,1008.25
2018-08-13T02:39:50.824Z,1008.25
2018-08-13T02:41:00.944Z,1008.28
2018-08-13T02:42:10.791Z,1008.28
2018-08-13T02:43:20.365Z,1008.27
2018-08-13T02:44:30.492Z,1008.25
2018-08-13T02:45:40.606Z,1008.21
2018-08-13T02:46:50.464Z,1008.21
2018-08-13T02:48:00.318Z,1008.14
2018-08-13T02:49:10.170Z,1008.13
2018-08-13T02:50:20.014Z,1008.13
2018-08-13T02:51:29.316Z,1008.12
2018-08-13T02:52:39.426Z,1008.12
2018-08-13T02:53:49.278Z,1008.09
2018-08-13T02:54:58.855Z,1008.06
2018-08-13T02:56:08.447Z,1008.06
2018-08-13T02:57:18.569Z,1008.02
2018-08-13T02:58:28.690Z,1008.05
2018-08-13T02:59:38.535Z,1008.02
2018-08-13T03:00:48.401Z,1007.99
2018-08-13T03:01:57.721Z,1007.95
2018-08-13T03:03:07.566Z,1007.95
2018-08-13T03:04:17.683Z,1007.95
2018-08-13T03:05:27.834Z,1007.94
2018-08-13T03:06:37.688Z,1007.91
2018-08-13T03:07:47.006Z,1007.91
2018-08-13T03:08:56.865Z,1007.91
2018-08-13T03:10:06.722Z,1007.88
2018-08-13T03:11:16.856Z,1007.87
2018-08-13T03:12:26.447Z,1007.88
2018-08-13T03:13:36.311Z,1007.86
2018-08-13T03:14:46.160Z,1007.86
2018-08-13T03:15:55.742Z,1007.75
2018-08-13T03:17:05.591Z,1007.74
2018-08-13T03:18:15.171Z,1007.72
2018-08-13T03:19:25.035Z,1007.72
2018-08-13T03:20:34.882Z,1007.7
2018-08-13T03:21:44.460Z,1007.67
2018-08-13T03:22:54.580Z,1007.69
2018-08-13T03:24:04.157Z,1007.75
2018-08-13T03:25:13.996Z,1007.67
2018-08-13T03:26:23.579Z,1007.66
2018-08-13T03:27:33.428Z,1007.62
2018-08-13T03:28:43.541Z,1007.6
2018-08-13T03:29:53.390Z,1007.62
2018-08-13T03:31:03.508Z,1007.61
2018-08-13T03:32:13.360Z,1007.64
2018-08-13T03:33:23.040Z,1007.6
2018-08-13T03:34:33.074Z,1007.63
2018-08-13T03:35:43.190Z,1007.61
2018-08-13T03:36:52.763Z,1007.64
2018-08-13T03:38:02.609Z,1007.61
2018-08-13T03:39:12.454Z,1007.64
2018-08-13T03:40:22.039Z,1007.65
2018-08-13T03:41:31.344Z,1007.63
2018-08-13T03:42:40.923Z,1007.64
2018-08-13T03:43:51.039Z,1007.57
2018-08-13T03:45:00.616Z,1007.57
2018-08-13T03:46:10.193Z,1007.6
2018-08-13T03:47:19.775Z,1007.61
2018-08-13T03:48:29.618Z,1007.59
2018-08-13T03:49:39.732Z,1007.58
2018-08-13T03:50:49.863Z,1007.61
2018-08-13T03:51:59.440Z,1007.54
2018-08-13T03:53:08.748Z,1007.53
2018-08-13T03:54:18.323Z,1007.53
2018-08-13T03:55:28.185Z,1007.53
2018-08-13T03:56:38.079Z,1007.48
2018-08-13T03:57:47.661Z,1007.49
2018-08-13T03:58:57.780Z,1007.47
2018-08-13T04:00:07.629Z,1007.47
2018-08-13T04:01:17.478Z,1007.43
2018-08-13T04:02:27.334Z,1007.43
2018-08-13T04:03:36.918Z,1007.45
2018-08-13T04:04:46.223Z,1007.44
2018-08-13T04:05:56.341Z,1007.45
2018-08-13T04:07:05.643Z,1007.43
2018-08-13T04:08:14.678Z,1007.42
2018-08-13T04:09:24.523Z,1007.38
2018-08-13T04:10:34.101Z,1007.38
2018-08-13T04:11:43.950Z,1007.35
2018-08-13T04:12:53.307Z,1007.39
2018-08-13T04:14:03.606Z,1007.35
2018-08-13T04:15:13.179Z,1007.39
2018-08-13T04:16:22.747Z,1007.36
2018-08-13T04:17:32.323Z,1007.38
2018-08-13T04:18:42.448Z,1007.36
2018-08-13T04:19:52.556Z,1007.32
2018-08-13T04:21:01.862Z,1007.34
2018-08-13T04:22:11.711Z,1007.33
2018-08-13T04:23:21.013Z,1007.32
2018-08-13T04:24:30.587Z,1007.27
2018-08-13T04:25:39.890Z,1007.28
2018-08-13T04:26:48.930Z,1007.27
2018-08-13T04:27:58.499Z,1007.22
2018-08-13T04:29:08.082Z,1007.27
2018-08-13T04:30:17.664Z,1007.22
2018-08-13T04:31:27.512Z,1007.2
2018-08-13T04:32:37.104Z,1007.2
2018-08-13T04:33:47.308Z,1007.21
2018-08-13T04:34:56.891Z,1007.17
2018-08-13T04:36:06.464Z,1007.18
2018-08-13T04:37:15.768Z,1007.19
2018-08-13T04:38:25.385Z,1007.17
2018-08-13T04:39:35.320Z,1007.18
2018-08-13T04:40:45.250Z,1007.15
2018-08-13T04:41:55.094Z,1007.12
2018-08-13T04:43:04.130Z,1007.13
2018-08-13T04:44:13.165Z,1007.15
2018-08-13T04:45:23.012Z,1007.16
2018-08-13T04:46:32.859Z,1007.18
2018-08-13T04:47:42.708Z,1007.16
2018-08-13T04:48:52.285Z,1007.14
2018-08-13T04:50:01.864Z,1007.13
2018-08-13T04:51:11.446Z,1007.11
2018-08-13T04:52:21.293Z,1007.13
2018-08-13T04:53:30.602Z,1007.17
2018-08-13T04:54:39.910Z,1007.15
2018-08-13T04:55:49.539Z,1007.18
2018-08-13T04:56:59.107Z,1007.19
2018-08-13T04:58:08.681Z,1007.17
2018-08-13T04:59:18.531Z,1007.17
2018-08-13T05:00:27.835Z,1007.21
2018-08-13T05:01:37.409Z,1007.19
2018-08-13T05:02:46.988Z,1007.2
2018-08-13T05:03:56.561Z,1007.18
2018-08-13T05:05:06.136Z,1007.2
2018-08-13T05:06:15.710Z,1007.15
2018-08-13T05:07:25.635Z,1007.24
2018-08-13T05:08:35.783Z,1007.25
2018-08-13T05:09:44.824Z,1007.24
2018-08-13T05:10:54.676Z,1007.25
2018-08-13T05:12:04.517Z,1007.19
2018-08-13T05:13:14.092Z,1007.17
2018-08-13T05:14:23.668Z,1007.17
2018-08-13T05:15:32.978Z,1007.24
2018-08-13T05:16:42.553Z,1007.26
2018-08-13T05:17:52.413Z,1007.27
2018-08-13T05:19:01.987Z,1007.25
2018-08-13T05:20:12.106Z,1007.32
2018-08-13T05:21:21.787Z,1007.32
2018-08-13T05:22:32.137Z,1007.24
2018-08-13T05:23:41.995Z,1007.26
2018-08-13T05:24:51.839Z,1007.19
2018-08-13T05:26:01.142Z,1007.15
2018-08-13T05:27:11.309Z,1007.18
2018-08-13T05:28:21.418Z,1007.24
2018-08-13T05:29:31.268Z,1007.22
2018-08-13T05:30:41.116Z,1007.21
2018-08-13T05:31:50.954Z,1007.18
2018-08-13T05:33:01.068Z,1007.18
2018-08-13T05:34:10.639Z,1007.16
2018-08-13T05:35:20.220Z,1007.13
2018-08-13T05:36:30.063Z,1007.11
2018-08-13T05:37:40.177Z,1007.1
2018-08-13T05:38:49.753Z,1007.14
2018-08-13T05:39:59.872Z,1007.15
2018-08-13T05:41:09.714Z,1007.15
2018-08-13T05:42:19.829Z,1007.12
2018-08-13T05:43:29.686Z,1007.11
2018-08-13T05:44:38.990Z,1007.05
2018-08-13T05:45:48.557Z,1007.07
2018-08-13T05:46:57.862Z,1007.02
2018-08-13T05:48:07.176Z,1007.02
2018-08-13T05:49:16.747Z,1007.01
2018-08-13T05:50:26.596Z,1007.02
2018-08-13T05:51:36.447Z,1006.99
2018-08-13T05:52:46.040Z,1006.98
2018-08-13T05:53:56.107Z,1006.99
2018-08-13T05:55:06.227Z,1006.98
2018-08-13T05:56:15.803Z,1006.99
2018-08-13T05:57:25.377Z,1006.98
2018-08-13T05:58:34.950Z,1006.99
2018-08-13T05:59:44.294Z,1007
2018-08-13T06:00:53.598Z,1006.98
2018-08-13T06:02:03.443Z,1006.97
2018-08-13T06:03:13.426Z,1006.99
2018-08-13T06:04:23.070Z,1006.99
2018-08-13T06:05:32.934Z,1007
2018-08-13T06:06:42.808Z,1006.98
2018-08-13T06:07:52.955Z,1007
2018-08-13T06:09:02.261Z,1007.03
2018-08-13T06:10:12.107Z,1007.04
2018-08-13T06:11:21.838Z,1007.02
2018-08-13T06:12:31.980Z,1007.05
2018-08-13T06:13:41.292Z,1007.11
2018-08-13T06:14:51.152Z,1007.08
2018-08-13T06:16:00.730Z,1007.11
2018-08-13T06:17:10.310Z,1007.11
2018-08-13T06:18:20.418Z,1007.11
2018-08-13T06:19:29.721Z,1007.1
2018-08-13T06:20:39.839Z,1007.12
2018-08-13T06:21:49.413Z,1007.12
2018-08-13T06:22:58.991Z,1007.07
2018-08-13T06:24:08.861Z,1007.03
2018-08-13T06:25:18.939Z,1006.98
2018-08-13T06:26:28.783Z,1006.96
2018-08-13T06:27:38.086Z,1007.02
2018-08-13T06:28:47.931Z,1006.97
2018-08-13T06:29:58.052Z,1007.04
2018-08-13T06:31:08.350Z,1007.1
2018-08-13T06:32:18.188Z,1007.09
2018-08-13T06:33:28.038Z,1007.13
2018-08-13T06:34:37.882Z,1007.08
2018-08-13T06:35:47.749Z,1007.15
2018-08-13T06:36:57.868Z,1007.17
2018-08-13T06:38:08.068Z,1007.2
2018-08-13T06:39:17.375Z,1007.24
2018-08-13T06:40:26.957Z,1007.18
2018-08-13T06:41:36.806Z,1007.18
2018-08-13T06:42:46.158Z,1007.16
2018-08-13T06:43:55.737Z,1007.15
2018-08-13T06:45:05.310Z,1007.15
2018-08-13T06:46:15.159Z,1007.12
2018-08-13T06:47:24.464Z,1007.14
2018-08-13T06:48:34.362Z,1007.1
2018-08-13T06:49:43.666Z,1007.1
2018-08-13T06:50:53.515Z,1007.05
2018-08-13T06:52:03.362Z,1007.04
2018-08-13T06:53:13.206Z,1007.03
2018-08-13T06:54:23.049Z,1007.03
2018-08-13T06:55:32.703Z,1007.06
2018-08-13T06:56:42.010Z,1006.99
2018-08-13T06:57:51.590Z,1007.03
2018-08-13T06:59:01.164Z,1007.04
2018-08-13T07:00:10.734Z,1007.03
2018-08-13T07:01:20.307Z,1007.05
2018-08-13T07:02:30.148Z,1007.05
2018-08-13T07:03:39.454Z,1007.05
2018-08-13T07:04:49.303Z,1007.08
2018-08-13T07:05:58.929Z,1007.05
2018-08-13T07:07:08.657Z,1007.05
2018-08-13T07:08:18.240Z,1007.11
2018-08-13T07:09:28.087Z,1007.09
2018-08-13T07:10:37.930Z,1007.09
2018-08-13T07:11:47.782Z,1007.08
2018-08-13T07:12:57.629Z,1007.07
2018-08-13T07:14:06.934Z,1007.07
2018-08-13T07:15:17.054Z,1007.04
2018-08-13T07:16:26.941Z,1007.06
2018-08-13T07:17:37.062Z,1007.1
2018-08-13T07:18:47.181Z,1007.13
2018-08-13T07:19:56.756Z,1007.15
2018-08-13T07:21:06.336Z,1007.13
2018-08-13T07:22:16.237Z,1007.09
2018-08-13T07:23:26.666Z,1007.06
2018-08-13T07:24:35.969Z,1007.03
2018-08-13T07:25:45.543Z,1007.02
2018-08-13T07:26:54.866Z,1006.98
2018-08-13T07:28:04.457Z,1006.98
2018-08-13T07:29:14.617Z,1006.98
2018-08-13T07:30:24.471Z,1006.96
2018-08-13T07:31:34.319Z,1006.96
2018-08-13T07:32:44.445Z,1006.95
2018-08-13T07:33:54.056Z,1006.94
2018-08-13T07:35:03.362Z,1006.94
2018-08-13T07:36:13.213Z,1006.93
2018-08-13T07:37:23.330Z,1006.94
2018-08-13T07:38:33.230Z,1006.94
2018-08-13T07:39:43.709Z,1006.99
2018-08-13T07:40:53.569Z,1006.97
2018-08-13T07:42:03.466Z,1006.96
2018-08-13T07:43:13.595Z,1006.93
2018-08-13T07:44:22.901Z,1006.95
2018-08-13T07:45:32.804Z,1006.94
2018-08-13T07:46:43.039Z,1006.97
2018-08-13T07:47:52.912Z,1006.94
2018-08-13T07:49:02.216Z,1006.92
2018-08-13T07:50:11.806Z,1006.91
2018-08-13T07:51:21.382Z,1006.92
2018-08-13T07:52:30.423Z,1006.91
2018-08-13T07:53:40.035Z,1006.83
2018-08-13T07:54:49.067Z,1006.89
2018-08-13T07:55:58.377Z,1006.9
2018-08-13T07:57:07.966Z,1006.88
2018-08-13T07:58:17.816Z,1006.9
2018-08-13T07:59:27.679Z,1006.87
2018-08-13T08:00:37.789Z,1006.86
2018-08-13T08:01:47.365Z,1006.84
2018-08-13T08:02:56.670Z,1006.88
2018-08-13T08:04:06.531Z,1006.85
2018-08-13T08:05:16.645Z,1006.86
2018-08-13T08:06:25.956Z,1006.92
2018-08-13T08:07:35.524Z,1006.95
2018-08-13T08:08:45.373Z,1006.92
2018-08-13T08:09:55.536Z,1006.93
2018-08-13T08:11:05.109Z,1006.88
2018-08-13T08:12:14.953Z,1006.91
2018-08-13T08:13:24.523Z,1006.87
2018-08-13T08:14:34.392Z,1006.88
2018-08-13T08:15:44.831Z,1006.88
2018-08-13T08:16:54.671Z,1006.87
2018-08-13T08:18:04.780Z,1006.83
2018-08-13T08:19:14.628Z,1006.86
2018-08-13T08:20:24.477Z,1006.82
2018-08-13T08:21:34.603Z,1006.77
2018-08-13T08:22:44.462Z,1006.75
2018-08-13T08:23:54.334Z,1006.78
2018-08-13T08:25:03.370Z,1006.72
2018-08-13T08:26:13.214Z,1006.76
2018-08-13T08:27:23.061Z,1006.76
2018-08-13T08:28:32.638Z,1006.73
2018-08-13T08:29:42.226Z,1006.72
2018-08-13T08:30:51.801Z,1006.72
2018-08-13T08:32:01.106Z,1006.71
2018-08-13T08:33:10.962Z,1006.74
2018-08-13T08:34:20.802Z,1006.73
2018-08-13T08:35:30.375Z,1006.69
2018-08-13T08:36:39.684Z,1006.72
2018-08-13T08:37:48.991Z,1006.76
2018-08-13T08:38:58.291Z,1006.67
2018-08-13T08:40:08.147Z,1006.7
2018-08-13T08:41:18.266Z,1006.67
2018-08-13T08:42:28.110Z,1006.65
2018-08-13T08:43:38.229Z,1006.68
2018-08-13T08:44:47.811Z,1006.68
2018-08-13T08:45:57.462Z,1006.68
2018-08-13T08:47:08.129Z,1006.7
2018-08-13T08:48:17.984Z,1006.71
2018-08-13T08:49:27.828Z,1006.69
2018-08-13T08:50:37.683Z,1006.75
2018-08-13T08:51:47.261Z,1006.75
2018-08-13T08:52:56.296Z,1006.79
2018-08-13T08:54:05.875Z,1006.85
2018-08-13T08:55:16.007Z,1006.92
2018-08-13T08:56:26.128Z,1006.94
2018-08-13T08:57:35.708Z,1006.88
2018-08-13T08:58:45.018Z,1006.83
2018-08-13T08:59:54.594Z,1006.84
2018-08-13T09:01:03.900Z,1006.88
2018-08-13T09:02:13.471Z,1006.9
2018-08-13T09:03:23.043Z,1006.87
2018-08-13T09:04:33.158Z,1006.85
2018-08-13T09:05:43.000Z,1006.83
2018-08-13T09:06:53.037Z,1006.85
2018-08-13T09:08:02.395Z,1006.86
2018-08-13T09:09:11.977Z,1006.84
2018-08-13T09:10:22.090Z,1006.85
2018-08-13T09:11:31.663Z,1006.79
2018-08-13T09:12:41.778Z,1006.81
2018-08-13T09:13:51.625Z,1006.75
2018-08-13T09:15:01.478Z,1006.77
2018-08-13T09:16:11.057Z,1006.73
2018-08-13T09:17:20.903Z,1006.67
2018-08-13T09:18:30.482Z,1006.75
2018-08-13T09:19:40.061Z,1006.77
2018-08-13T09:20:49.367Z,1006.78
2018-08-13T09:21:59.223Z,1006.78
2018-08-13T09:23:08.796Z,1006.79
2018-08-13T09:24:18.377Z,1006.77
2018-08-13T09:25:28.027Z,1006.79
2018-08-13T09:26:38.198Z,1006.7
2018-08-13T09:27:48.313Z,1006.71
2018-08-13T09:28:58.159Z,1006.69
2018-08-13T09:30:08.016Z,1006.64
2018-08-13T09:31:17.595Z,1006.64
2018-08-13T09:32:27.444Z,1006.61
2018-08-13T09:33:37.026Z,1006.65
2018-08-13T09:34:47.144Z,1006.63
2018-08-13T09:35:56.986Z,1006.58
2018-08-13T09:37:06.616Z,1006.58
2018-08-13T09:38:16.195Z,1006.6
2018-08-13T09:39:26.043Z,1006.66
2018-08-13T09:40:35.621Z,1006.63
2018-08-13T09:41:45.472Z,1006.65
2018-08-13T09:42:55.060Z,1006.69
2018-08-13T09:44:04.914Z,1006.73
2018-08-13T09:45:14.215Z,1006.72
2018-08-13T09:46:24.067Z,1006.73
2018-08-13T09:47:33.660Z,1006.74
2018-08-13T09:48:42.695Z,1006.76
2018-08-13T09:49:52.273Z,1006.83
2018-08-13T09:51:02.131Z,1006.87
2018-08-13T09:52:11.980Z,1006.81
2018-08-13T09:53:21.833Z,1006.79
2018-08-13T09:54:31.412Z,1006.82
2018-08-13T09:55:41.267Z,1006.85
2018-08-13T09:56:51.128Z,1006.81
2018-08-13T09:58:00.968Z,1006.8
2018-08-13T09:59:10.010Z,1006.79
2018-08-13T10:00:19.902Z,1006.84
2018-08-13T10:01:29.765Z,1006.84
2018-08-13T10:02:39.610Z,1006.8
2018-08-13T10:03:49.482Z,1006.81
2018-08-13T10:04:59.054Z,1006.81
2018-08-13T10:06:08.629Z,1006.82
2018-08-13T10:07:18.214Z,1006.76
2018-08-13T10:08:28.061Z,1006.84
2018-08-13T10:09:38.223Z,1006.82
2018-08-13T10:10:48.081Z,1006.82
2018-08-13T10:11:58.670Z,1006.82
2018-08-13T10:13:08.800Z,1006.81
2018-08-13T10:14:18.380Z,1006.83
2018-08-13T10:15:28.230Z,1006.83
2018-08-13T10:16:37.288Z,1006.87
2018-08-13T10:17:47.023Z,1006.98
2018-08-13T10:18:57.673Z,1007
2018-08-13T10:20:07.257Z,1007.01
2018-08-13T10:21:16.834Z,1007.02
2018-08-13T10:22:26.678Z,1007.05
2018-08-13T10:23:36.523Z,1007.05
2018-08-13T10:24:46.103Z,1007.04
2018-08-13T10:25:55.411Z,1006.99
2018-08-13T10:27:04.723Z,1007
2018-08-13T10:28:14.568Z,1006.97
2018-08-13T10:29:23.872Z,1006.93
2018-08-13T10:30:33.454Z,1006.96
2018-08-13T10:31:43.566Z,1006.94
2018-08-13T10:32:53.159Z,1006.93
2018-08-13T10:34:02.741Z,1006.97
2018-08-13T10:35:12.046Z,1007.03
2018-08-13T10:36:21.937Z,1007.07
2018-08-13T10:37:31.275Z,1007.11
2018-08-13T10:38:40.936Z,1007.13
2018-08-13T10:39:50.786Z,1007.16
2018-08-13T10:41:00.905Z,1007.15
2018-08-13T10:42:10.214Z,1007.12
2018-08-13T10:43:20.060Z,1007.09
2018-08-13T10:44:30.321Z,1007.07
2018-08-13T10:45:40.163Z,1007.07
2018-08-13T10:46:50.023Z,1007.08
2018-08-13T10:47:59.644Z,1007.06
2018-08-13T10:49:09.486Z,1007
2018-08-13T10:50:19.329Z,1006.99
2018-08-13T10:51:28.926Z,1006.96
2018-08-13T10:52:38.284Z,1006.94
2018-08-13T10:53:47.331Z,1006.94
2018-08-13T10:54:56.906Z,1006.9
2018-08-13T10:56:07.096Z,1006.95
2018-08-13T10:57:17.411Z,1006.94
2018-08-13T10:58:27.296Z,1007.06
2018-08-13T10:59:37.137Z,1007.18
2018-08-13T11:00:47.250Z,1007.22
2018-08-13T11:01:56.820Z,1007.27
2018-08-13T11:03:06.722Z,1007.27
2018-08-13T11:04:17.025Z,1007.16
2018-08-13T11:05:26.607Z,1007.17
2018-08-13T11:06:36.720Z,1007.1
2018-08-13T11:07:46.580Z,1007.08
2018-08-13T11:08:56.754Z,1007.06
2018-08-13T11:10:06.869Z,1007
2018-08-13T11:11:16.864Z,1007.02
2018-08-13T11:12:27.001Z,1007.11
2018-08-13T11:13:36.714Z,1007.15
2018-08-13T11:14:46.629Z,1007.15
2018-08-13T11:15:56.473Z,1007.08
2018-08-13T11:17:06.088Z,1007.08
2018-08-13T11:18:15.658Z,1007.1
2018-08-13T11:19:24.967Z,1007.13
2018-08-13T11:20:34.543Z,1007.14
2018-08-13T11:21:44.171Z,1007.14
2018-08-13T11:22:54.040Z,1007.08
2018-08-13T11:24:03.614Z,1007.11
2018-08-13T11:25:12.933Z,1007.11
2018-08-13T11:26:23.390Z,1007.13
2018-08-13T11:27:32.427Z,1007.16
2018-08-13T11:28:42.172Z,1007.17
2018-08-13T11:29:51.905Z,1007.15
2018-08-13T11:31:01.213Z,1007.11
2018-08-13T11:32:11.124Z,1007.09
2018-08-13T11:33:20.442Z,1007.07
2018-08-13T11:34:30.289Z,1007.03
2018-08-13T11:35:40.136Z,1006.96
2018-08-13T11:36:49.717Z,1006.93
2018-08-13T11:37:59.874Z,1006.88
2018-08-13T11:39:09.776Z,1006.85
2018-08-13T11:40:19.355Z,1006.93
2018-08-13T11:41:29.542Z,1006.91
2018-08-13T11:42:39.118Z,1006.9
2018-08-13T11:43:48.447Z,1006.86
2018-08-13T11:44:58.072Z,1006.87
2018-08-13T11:46:07.377Z,1006.8
2018-08-13T11:47:17.312Z,1006.81
2018-08-13T11:48:26.885Z,1006.81
2018-08-13T11:49:36.997Z,1006.86
2018-08-13T11:50:47.117Z,1006.93
2018-08-13T11:51:56.959Z,1006.93
2018-08-13T11:53:06.534Z,1006.98
2018-08-13T11:54:15.574Z,1006.89
2018-08-13T11:55:25.147Z,1006.82
2018-08-13T11:56:34.730Z,1006.93
2018-08-13T11:57:44.307Z,1006.97
2018-08-13T11:58:53.894Z,1006.96
2018-08-13T12:00:04.015Z,1006.9
2018-08-13T12:01:13.860Z,1006.79
2018-08-13T12:02:23.709Z,1006.75
2018-08-13T12:03:33.559Z,1006.78
2018-08-13T12:04:43.676Z,1006.83
2018-08-13T12:05:52.714Z,1006.81
2018-08-13T12:07:02.290Z,1006.73
2018-08-13T12:08:11.647Z,1006.67
2018-08-13T12:09:21.905Z,1006.66
2018-08-13T12:10:31.753Z,1006.73
2018-08-13T12:11:41.597Z,1006.69
2018-08-13T12:12:51.172Z,1006.68
2018-08-13T12:14:01.412Z,1006.66
2018-08-13T12:15:11.483Z,1006.66
2018-08-13T12:16:21.617Z,1006.64
2018-08-13T12:17:31.742Z,1006.63
2018-08-13T12:18:41.859Z,1006.59
2018-08-13T12:19:51.165Z,1006.55
2018-08-13T12:21:00.742Z,1006.55
2018-08-13T12:22:10.323Z,1006.57
2018-08-13T12:23:19.896Z,1006.6
2018-08-13T12:24:29.474Z,1006.57
2018-08-13T12:25:39.112Z,1006.57
2018-08-13T12:26:48.695Z,1006.59
2018-08-13T12:27:58.547Z,1006.61
2018-08-13T12:29:08.398Z,1006.61
2018-08-13T12:30:17.710Z,1006.58
2018-08-13T12:31:27.014Z,1006.57
2018-08-13T12:32:36.325Z,1006.62
2018-08-13T12:33:46.442Z,1006.61
2018-08-13T12:34:55.749Z,1006.61
2018-08-13T12:36:05.327Z,1006.59
2018-08-13T12:37:15.179Z,1006.53
2018-08-13T12:38:24.796Z,1006.53
2018-08-13T12:39:34.371Z,1006.45
2018-08-13T12:40:44.219Z,1006.43
2018-08-13T12:41:53.802Z,1006.44
2018-08-13T12:43:03.116Z,1006.46
2018-08-13T12:44:12.428Z,1006.43
2018-08-13T12:45:21.736Z,1006.51
2018-08-13T12:46:31.642Z,1006.52
2018-08-13T12:47:41.228Z,1006.52
2018-08-13T12:48:50.813Z,1006.53
2018-08-13T12:50:00.121Z,1006.44
2018-08-13T12:51:09.879Z,1006.4
2018-08-13T12:52:19.761Z,1006.42
2018-08-13T12:53:29.621Z,1006.32
2018-08-13T12:54:39.219Z,1006.29
2018-08-13T12:55:48.537Z,1006.27
2018-08-13T12:56:58.395Z,1006.28
2018-08-13T12:58:07.796Z,1006.2
2018-08-13T12:59:17.108Z,1006.19
2018-08-13T13:00:26.492Z,1006.25
2018-08-13T13:01:36.310Z,1006.26
2018-08-13T13:02:45.900Z,1006.25
2018-08-13T13:03:55.207Z,1006.21
2018-08-13T13:05:05.053Z,1006.2
2018-08-13T13:06:13.872Z,1006.2
2018-08-13T13:07:23.721Z,1006.18
2018-08-13T13:08:33.298Z,1006.19
2018-08-13T13:09:43.148Z,1006.2
2018-08-13T13:10:53.267Z,1006.2
2018-08-13T13:12:02.902Z,1006.22
2018-08-13T13:13:12.758Z,1006.19
2018-08-13T13:14:22.617Z,1006.19
2018-08-13T13:15:32.201Z,1006.16
2018-08-13T13:16:42.325Z,1006.14
2018-08-13T13:17:52.468Z,1006.11
2018-08-13T13:19:02.605Z,1006.09
2018-08-13T13:20:11.921Z,1006.12
2018-08-13T13:21:21.505Z,1006.13
2018-08-13T13:22:31.089Z,1006.12
2018-08-13T13:23:40.455Z,1006.13
2018-08-13T13:24:50.570Z,1006.15
2018-08-13T13:26:00.729Z,1006.13
2018-08-13T13:27:10.763Z,1006.12
2018-08-13T13:28:19.807Z,1006.09
2018-08-13T13:29:29.658Z,1006.04
2018-08-13T13:30:39.783Z,1005.99
2018-08-13T13:31:49.371Z,1006.05
2018-08-13T13:32:59.500Z,1006.01
2018-08-13T13:34:09.353Z,1005.99
2018-08-13T13:35:18.442Z,1005.97
2018-08-13T13:36:28.338Z,1005.96
2018-08-13T13:37:38.190Z,1005.96
2018-08-13T13:38:48.112Z,1006
2018-08-13T13:39:57.969Z,1006
2018-08-13T13:41:07.283Z,1005.96
2018-08-13T13:42:17.132Z,1006.09
2018-08-13T13:43:26.716Z,1006.04
2018-08-13T13:44:36.033Z,1006.04
2018-08-13T13:45:45.901Z,1006.03
2018-08-13T13:46:55.761Z,1006.01
2018-08-13T13:48:05.881Z,1005.95
2018-08-13T13:49:15.734Z,1005.91
2018-08-13T13:50:25.314Z,1005.88
2018-08-13T13:51:34.657Z,1005.85
2018-08-13T13:52:45.029Z,1005.86
2018-08-13T13:53:54.612Z,1005.85
2018-08-13T13:55:04.198Z,1005.89
2018-08-13T13:56:13.780Z,1005.9
2018-08-13T13:57:23.956Z,1005.77
2018-08-13T13:58:33.621Z,1005.86
2018-08-13T13:59:42.670Z,1005.75
2018-08-13T14:00:52.798Z,1005.81
2018-08-13T14:02:02.658Z,1005.86
2018-08-13T14:03:11.975Z,1005.82
2018-08-13T14:04:21.829Z,1005.82
2018-08-13T14:05:31.152Z,1005.8
2018-08-13T14:06:41.335Z,1005.76